Time;durP1;ratioP1;P1;durP2;ratioP2;P2;SDS_P1;SDS_P2;PMS_P1;PMS_P2;Temp;Humidity;BMP_temperature;BMP_pressure;BME280_temperature;BME280_humidity;BME280_pressure;Samples;Min_cycle;Max_cycle;Signal;HPM_P1;HPM_P2
2022/03/31 00:00:57;;;;;;;0.70;0.40;;;20.90;39.50;;;;;;5001108;28;20037;-61
2022/03/31 00:03:23;;;;;;;0.45;0.38;;;20.90;39.30;;;;;;4997684;28;20473;-64
2022/03/31 00:05:49;;;;;;;1.23;0.63;;;20.90;40.20;;;;;;5000770;28;20132;-64
2022/03/31 00:08:18;;;;;;;1.00;0.55;;;20.90;39.50;;;;;;5000975;28;20034;-64
2022/03/31 00:10:52;;;;;;;0.90;0.45;;;20.80;39.40;;;;;;5001211;28;20034;-64
2022/03/31 00:13:28;;;;;;;1.13;0.40;;;20.90;39.50;;;;;;5001262;28;20367;-65
2022/03/31 00:15:56;;;;;;;0.70;0.40;;;20.80;39.40;;;;;;4982142;28;20152;-62
2022/03/31 00:18:22;;;;;;;0.63;0.50;;;20.80;39.40;;;;;;5001469;28;20077;-62
2022/03/31 00:34:16;;;;;;;1.75;0.38;;;20.70;39.30;;;;;;5001275;28;20046;-63
2022/03/31 00:36:51;;;;;;;1.63;0.50;;;20.70;39.40;;;;;;5000115;28;20744;-62
2022/03/31 00:39:29;;;;;;;0.85;0.47;;;20.70;39.30;;;;;;4999966;28;20081;-62
2022/03/31 00:41:55;;;;;;;0.90;0.32;;;20.70;39.40;;;;;;5000540;28;20046;-64
2022/03/31 00:44:22;;;;;;;0.50;0.40;;;20.70;39.30;;;;;;4999478;28;20045;-62
2022/03/31 00:46:49;;;;;;;0.40;0.40;;;20.70;39.30;;;;;;5000189;28;20048;-63
2022/03/31 00:49:19;;;;;;;0.50;0.40;;;20.70;39.40;;;;;;5000104;28;20057;-65
2022/03/31 00:51:46;;;;;;;0.87;0.40;;;20.60;39.20;;;;;;5000851;28;20505;-65
2022/03/31 00:54:14;;;;;;;1.02;0.60;;;20.60;39.20;;;;;;5001485;28;20053;-64
2022/03/31 00:56:41;;;;;;;1.55;0.60;;;20.60;39.30;;;;;;4983538;28;21671;-63
2022/03/31 00:59:09;;;;;;;1.02;0.45;;;20.60;39.20;;;;;;4999783;28;20537;-66
2022/03/31 01:01:39;;;;;;;0.47;0.47;;;20.60;39.20;;;;;;5000182;28;20047;-63
2022/03/31 01:04:06;;;;;;;0.75;0.40;;;20.60;39.20;;;;;;4999767;28;20038;-64
2022/03/31 01:06:32;;;;;;;1.20;0.40;;;20.60;39.20;;;;;;5001129;28;20312;-62
2022/03/31 01:08:59;;;;;;;0.63;0.43;;;20.60;39.20;;;;;;5000809;28;20046;-62
2022/03/31 01:11:25;;;;;;;0.82;0.32;;;20.60;39.10;;;;;;5001756;28;20049;-62
2022/03/31 01:13:51;;;;;;;1.15;0.40;;;20.50;39.10;;;;;;4999928;28;20050;-63
2022/03/31 01:16:17;;;;;;;0.75;0.43;;;20.60;39.10;;;;;;5000245;28;20046;-64
2022/03/31 01:18:43;;;;;;;0.57;0.32;;;20.60;39.10;;;;;;5002869;28;20553;-63
2022/03/31 01:21:11;;;;;;;1.25;0.30;;;20.50;39.10;;;;;;5006115;28;20486;-63
2022/03/31 01:23:37;;;;;;;0.57;0.40;;;20.50;39.10;;;;;;5003941;28;20038;-63
2022/03/31 01:26:09;;;;;;;1.30;0.50;;;20.50;39.00;;;;;;5004996;28;20100;-67
2022/03/31 01:28:39;;;;;;;1.50;0.40;;;20.50;39.00;;;;;;5002717;28;20208;-64
2022/03/31 01:31:04;;;;;;;1.00;0.40;;;20.50;39.10;;;;;;4985489;28;20100;-62
2022/03/31 01:33:30;;;;;;;1.48;0.50;;;20.50;39.10;;;;;;5002750;28;20038;-62
2022/03/31 01:35:56;;;;;;;0.68;0.35;;;20.50;39.10;;;;;;5004462;28;20034;-61
2022/03/31 01:38:22;;;;;;;1.10;0.38;;;20.50;39.10;;;;;;5004065;28;20038;-62
2022/03/31 01:40:48;;;;;;;0.43;0.30;;;20.50;39.00;;;;;;4993236;28;20108;-62
2022/03/31 01:43:13;;;;;;;1.42;0.57;;;20.50;39.20;;;;;;4993790;28;20123;-66
2022/03/31 01:45:40;;;;;;;1.13;0.50;;;20.40;39.00;;;;;;4994916;28;20762;-63
2022/03/31 01:48:06;;;;;;;0.70;0.45;;;20.40;39.00;;;;;;4991367;28;20052;-62
2022/03/31 01:50:32;;;;;;;0.80;0.45;;;20.40;39.70;;;;;;4990360;28;20042;-61
2022/03/31 01:52:57;;;;;;;0.32;0.30;;;20.40;38.90;;;;;;4992449;28;20092;-63
2022/03/31 01:55:24;;;;;;;0.93;0.57;;;20.40;38.90;;;;;;4991627;28;20057;-64
2022/03/31 01:57:50;;;;;;;0.77;0.43;;;20.40;38.90;;;;;;4977120;28;20049;-61
2022/03/31 02:00:16;;;;;;;0.52;0.40;;;20.40;38.90;;;;;;4985684;28;20053;-66
2022/03/31 02:02:43;;;;;;;1.52;0.38;;;20.40;39.00;;;;;;4968474;28;20034;-64
2022/03/31 02:05:09;;;;;;;0.98;0.30;;;20.40;38.80;;;;;;4986354;28;20750;-62
2022/03/31 02:07:36;;;;;;;1.02;0.60;;;20.40;38.90;;;;;;4991988;28;20202;-66
2022/03/31 02:10:12;;;;;;;0.85;0.30;;;20.40;38.90;;;;;;4990278;28;20043;-63
2022/03/31 02:12:39;;;;;;;1.30;0.63;;;20.40;38.90;;;;;;4992053;28;20033;-63
2022/03/31 02:15:05;;;;;;;0.32;0.20;;;20.30;38.80;;;;;;4992151;28;20139;-64
2022/03/31 02:17:31;;;;;;;1.70;0.40;;;20.30;38.80;;;;;;4994024;28;20132;-61
2022/03/31 02:19:57;;;;;;;0.65;0.32;;;20.30;38.80;;;;;;4984282;28;20141;-66
2022/03/31 02:22:23;;;;;;;0.40;0.40;;;20.30;38.80;;;;;;4988785;28;20057;-62
2022/03/31 02:24:49;;;;;;;0.95;0.50;;;20.30;38.80;;;;;;4992603;28;20695;-62
2022/03/31 02:27:14;;;;;;;1.15;0.50;;;20.30;38.80;;;;;;4991667;28;20061;-62
2022/03/31 02:29:40;;;;;;;0.75;0.35;;;20.30;38.80;;;;;;4990482;28;20524;-66
2022/03/31 02:32:07;;;;;;;0.93;0.30;;;20.30;38.80;;;;;;4990885;28;20052;-64
2022/03/31 02:34:33;;;;;;;0.50;0.30;;;20.30;38.90;;;;;;4974840;28;20053;-62
2022/03/31 02:36:59;;;;;;;0.60;0.50;;;20.30;38.80;;;;;;4989933;28;20494;-62
2022/03/31 02:39:28;;;;;;;1.45;0.73;;;20.20;38.70;;;;;;4996650;28;20176;-62
2022/03/31 02:41:54;;;;;;;1.38;0.50;;;20.20;38.80;;;;;;5004060;28;20176;-63
2022/03/31 02:44:20;;;;;;;0.75;0.55;;;20.20;38.70;;;;;;4986248;28;20065;-62
2022/03/31 02:46:46;;;;;;;1.95;0.63;;;20.20;38.70;;;;;;5003525;28;20041;-63
2022/03/31 02:49:11;;;;;;;1.30;0.50;;;20.20;38.70;;;;;;5001270;28;20127;-62
2022/03/31 02:51:37;;;;;;;1.23;0.45;;;20.20;38.70;;;;;;5001492;28;20147;-63
2022/03/31 02:56:47;;;;;;;1.65;0.50;;;20.20;38.70;;;;;;5003305;28;20053;-64
2022/03/31 02:59:12;;;;;;;0.95;0.50;;;20.20;38.80;;;;;;5002811;28;20042;-63
2022/03/31 03:01:38;;;;;;;0.50;0.40;;;20.20;38.80;;;;;;4984905;28;20103;-63
2022/03/31 03:04:04;;;;;;;1.45;0.50;;;20.20;38.70;;;;;;5003288;28;20441;-64
2022/03/31 03:06:30;;;;;;;0.82;0.50;;;20.20;38.70;;;;;;4983259;28;20057;-62
2022/03/31 03:08:55;;;;;;;0.45;0.35;;;20.20;38.80;;;;;;5002402;28;20393;-66
2022/03/31 03:11:22;;;;;;;0.50;0.50;;;20.10;38.70;;;;;;5003216;28;20565;-66
2022/03/31 03:13:48;;;;;;;0.22;0.22;;;20.20;38.70;;;;;;5003826;28;20050;-62
2022/03/31 03:16:14;;;;;;;0.75;0.50;;;20.20;38.70;;;;;;5001694;28;20046;-63
2022/03/31 03:18:40;;;;;;;1.38;0.50;;;20.10;38.60;;;;;;4984847;28;20048;-63
2022/03/31 03:21:07;;;;;;;0.45;0.38;;;20.10;38.60;;;;;;5001994;28;20451;-64
2022/03/31 03:23:37;;;;;;;0.73;0.40;;;20.10;38.70;;;;;;5002167;28;20215;-65
2022/03/31 03:26:04;;;;;;;2.97;0.57;;;20.10;38.60;;;;;;5003124;28;20041;-65
2022/03/31 03:28:30;;;;;;;0.70;0.40;;;20.10;38.60;;;;;;4984345;28;20580;-64
2022/03/31 03:30:57;;;;;;;0.85;0.65;;;20.10;38.60;;;;;;5001638;28;20522;-63
2022/03/31 03:33:22;;;;;;;0.95;0.50;;;20.10;38.70;;;;;;5003034;28;20148;-62
2022/03/31 03:35:48;;;;;;;0.88;0.60;;;20.10;38.70;;;;;;5002669;28;20045;-62
2022/03/31 03:38:15;;;;;;;0.30;0.30;;;20.10;38.70;;;;;;5002531;28;20119;-65
2022/03/31 03:40:41;;;;;;;0.57;0.50;;;20.10;38.70;;;;;;5002864;28;20491;-62
2022/03/31 03:43:07;;;;;;;0.90;0.63;;;20.10;38.70;;;;;;5001858;28;20034;-63
2022/03/31 03:45:32;;;;;;;0.50;0.50;;;20.10;38.60;;;;;;5002508;28;20512;-64
2022/03/31 03:47:59;;;;;;;0.93;0.50;;;20.10;39.40;;;;;;5000931;28;20072;-61
2022/03/31 03:50:25;;;;;;;1.02;0.73;;;20.10;38.60;;;;;;5001822;28;20042;-65
2022/03/31 03:52:51;;;;;;;1.40;0.60;;;20.00;38.70;;;;;;5001631;28;20050;-62
2022/03/31 03:55:17;;;;;;;1.35;0.65;;;20.00;38.60;;;;;;5003251;28;20080;-62
2022/03/31 03:57:43;;;;;;;0.75;0.50;;;20.00;38.60;;;;;;5000419;28;20045;-62
2022/03/31 04:00:10;;;;;;;0.63;0.63;;;20.00;38.60;;;;;;5000761;28;20073;-63
2022/03/31 04:02:36;;;;;;;0.77;0.52;;;20.00;38.60;;;;;;4997112;28;20506;-64
2022/03/31 04:05:02;;;;;;;1.15;0.65;;;20.00;38.60;;;;;;4981293;28;20068;-61
2022/03/31 04:07:28;;;;;;;0.82;0.50;;;20.00;38.60;;;;;;5000500;28;20129;-63
2022/03/31 04:09:53;;;;;;;1.45;0.52;;;20.00;38.60;;;;;;4984621;28;20148;-63
2022/03/31 04:12:19;;;;;;;1.10;0.60;;;20.00;38.60;;;;;;5002823;28;20053;-64
2022/03/31 04:14:44;;;;;;;0.73;0.70;;;20.00;38.70;;;;;;5002272;28;20497;-63
2022/03/31 04:17:10;;;;;;;0.50;0.50;;;20.00;38.60;;;;;;5001245;28;20091;-62
2022/03/31 04:19:35;;;;;;;1.10;0.55;;;20.00;38.60;;;;;;5000477;28;20713;-64
2022/03/31 04:22:01;;;;;;;1.20;0.65;;;19.90;38.50;;;;;;4998941;28;20030;-62
2022/03/31 04:24:27;;;;;;;0.80;0.50;;;19.90;38.60;;;;;;5001465;28;20068;-64
2022/03/31 04:26:52;;;;;;;0.60;0.60;;;19.90;38.50;;;;;;5003248;28;20251;-61
2022/03/31 04:29:18;;;;;;;0.73;0.60;;;20.00;38.60;;;;;;5000077;28;20721;-64
2022/03/31 04:31:44;;;;;;;1.60;0.80;;;20.00;38.60;;;;;;5001777;28;20861;-65
2022/03/31 04:34:15;;;;;;;0.88;0.68;;;19.90;38.60;;;;;;4983412;28;20045;-62
2022/03/31 04:36:42;;;;;;;0.70;0.70;;;19.90;38.60;;;;;;5001279;28;20073;-61
2022/03/31 04:39:08;;;;;;;0.80;0.60;;;19.90;38.60;;;;;;5000453;28;20057;-61
2022/03/31 04:41:34;;;;;;;1.33;0.50;;;19.90;38.60;;;;;;4999223;28;20044;-65
2022/03/31 04:43:59;;;;;;;2.40;0.70;;;20.00;38.70;;;;;;5000567;28;20406;-64
2022/03/31 04:46:25;;;;;;;0.95;0.60;;;20.00;38.70;;;;;;5002041;28;20109;-64
2022/03/31 04:48:51;;;;;;;1.17;0.52;;;20.00;38.70;;;;;;4999204;28;20486;-65
2022/03/31 04:51:16;;;;;;;0.70;0.40;;;20.00;38.80;;;;;;5000732;28;20042;-64
2022/03/31 04:53:42;;;;;;;1.40;0.40;;;20.00;38.90;;;;;;5000926;28;21049;-64
2022/03/31 04:56:07;;;;;;;0.93;0.50;;;20.00;39.00;;;;;;5000483;28;20042;-64
2022/03/31 04:58:36;;;;;;;1.27;0.40;;;20.00;39.10;;;;;;5000651;28;20049;-64
2022/03/31 05:01:02;;;;;;;0.98;0.40;;;20.00;39.10;;;;;;4982867;28;20402;-64
2022/03/31 05:03:27;;;;;;;0.98;0.43;;;19.90;39.10;;;;;;5000377;28;20409;-65
2022/03/31 05:05:53;;;;;;;0.80;0.60;;;19.90;39.20;;;;;;4982588;28;20046;-65
2022/03/31 05:08:18;;;;;;;0.98;0.55;;;20.00;39.30;;;;;;4983820;28;20459;-64
2022/03/31 05:10:45;;;;;;;0.50;0.50;;;19.90;39.30;;;;;;4982616;28;20038;-64
2022/03/31 05:13:11;;;;;;;2.15;0.70;;;20.00;39.30;;;;;;4981205;28;20050;-66
2022/03/31 05:15:37;;;;;;;0.70;0.70;;;19.90;39.30;;;;;;4982740;28;20140;-65
2022/03/31 05:18:03;;;;;;;1.08;0.50;;;19.90;39.30;;;;;;5001352;28;20042;-63
2022/03/31 05:20:28;;;;;;;0.75;0.50;;;19.90;39.30;;;;;;5001177;28;20050;-63
2022/03/31 05:22:54;;;;;;;1.45;0.52;;;19.90;39.40;;;;;;4982957;28;20844;-65
2022/03/31 05:25:19;;;;;;;0.90;0.70;;;19.90;39.40;;;;;;4998801;28;20038;-63
2022/03/31 05:27:47;;;;;;;2.53;0.60;;;19.90;39.50;;;;;;4999991;28;20476;-63
2022/03/31 05:30:14;;;;;;;1.23;0.65;;;19.90;39.90;;;;;;5000056;28;20049;-63
2022/03/31 05:32:40;;;;;;;1.08;0.60;;;19.90;39.40;;;;;;5001243;28;20068;-63
2022/03/31 05:35:08;;;;;;;0.80;0.70;;;20.00;39.50;;;;;;4999559;28;20050;-63
2022/03/31 05:37:34;;;;;;;1.75;0.50;;;20.00;39.50;;;;;;5000056;28;20065;-65
2022/03/31 05:40:04;;;;;;;0.90;0.57;;;20.00;39.40;;;;;;5000902;28;20046;-62
2022/03/31 05:42:32;;;;;;;1.02;0.80;;;19.90;39.30;;;;;;5001488;28;20046;-64
2022/03/31 05:45:01;;;;;;;0.98;0.55;;;20.00;39.40;;;;;;5000190;28;20041;-63
2022/03/31 05:47:27;;;;;;;0.70;0.70;;;20.00;39.40;;;;;;5001271;28;20084;-62
2022/03/31 05:49:53;;;;;;;0.90;0.85;;;20.00;39.30;;;;;;4999017;28;20041;-65
2022/03/31 05:52:19;;;;;;;0.93;0.77;;;20.00;39.40;;;;;;5000968;28;20042;-64
2022/03/31 05:54:45;;;;;;;0.73;0.73;;;20.00;39.30;;;;;;4982999;28;20042;-64
2022/03/31 05:57:11;;;;;;;0.70;0.60;;;20.00;39.30;;;;;;5001776;28;20412;-65
2022/03/31 05:59:36;;;;;;;1.63;0.77;;;20.00;39.50;;;;;;4988996;28;20038;-65
2022/03/31 06:02:02;;;;;;;0.82;0.82;;;20.00;39.20;;;;;;5000884;28;20404;-65
2022/03/31 06:04:28;;;;;;;0.85;0.60;;;20.00;39.20;;;;;;5001809;28;20555;-64
2022/03/31 06:06:54;;;;;;;0.90;0.73;;;20.00;39.90;;;;;;5003165;28;20038;-65
2022/03/31 06:09:20;;;;;;;0.70;0.70;;;20.00;39.10;;;;;;5000727;28;20045;-64
2022/03/31 06:11:46;;;;;;;2.75;0.73;;;20.00;40.00;;;;;;5003351;28;20390;-65
2022/03/31 06:14:12;;;;;;;0.88;0.70;;;20.00;39.10;;;;;;4986866;28;20057;-65
2022/03/31 06:16:38;;;;;;;0.60;0.50;;;20.00;39.20;;;;;;4985598;28;20038;-65
2022/03/31 06:19:05;;;;;;;1.85;0.60;;;20.00;39.30;;;;;;5006074;28;20046;-65
2022/03/31 06:21:31;;;;;;;1.23;0.60;;;20.00;39.30;;;;;;5003048;28;20945;-65
2022/03/31 06:23:57;;;;;;;0.57;0.43;;;20.10;39.40;;;;;;4984931;28;20053;-64
2022/03/31 06:26:23;;;;;;;0.60;0.60;;;20.10;39.40;;;;;;5001628;28;20100;-63
2022/03/31 06:28:49;;;;;;;0.60;0.60;;;20.10;39.50;;;;;;5004306;28;20041;-66
2022/03/31 06:31:15;;;;;;;0.93;0.45;;;20.10;39.50;;;;;;4987023;28;20172;-62
2022/03/31 06:33:40;;;;;;;0.73;0.45;;;20.10;39.50;;;;;;5002148;28;20045;-62
2022/03/31 06:36:06;;;;;;;0.70;0.60;;;20.10;39.50;;;;;;5003258;28;20033;-65
2022/03/31 06:38:32;;;;;;;0.50;0.50;;;20.10;39.50;;;;;;5003647;28;20117;-65
2022/03/31 06:41:06;;;;;;;0.50;0.50;;;20.10;39.50;;;;;;4971177;28;20055;-62
2022/03/31 06:43:37;;;;;;;0.50;0.50;;;20.10;39.50;;;;;;4993857;28;20092;-64
2022/03/31 06:46:03;;;;;;;1.13;0.50;;;20.10;39.50;;;;;;4993016;28;20619;-65
2022/03/31 06:48:30;;;;;;;0.70;0.50;;;20.10;39.60;;;;;;4993501;28;20046;-65
2022/03/31 06:50:59;;;;;;;0.65;0.40;;;20.10;39.50;;;;;;4989931;28;20117;-64
2022/03/31 06:53:25;;;;;;;1.23;0.50;;;20.10;39.40;;;;;;4990659;28;20581;-62
2022/03/31 06:55:51;;;;;;;2.38;0.65;;;20.20;39.40;;;;;;4991025;28;20042;-62
2022/03/31 06:58:17;;;;;;;0.45;0.45;;;20.20;39.40;;;;;;4993367;28;20046;-64
2022/03/31 07:00:42;;;;;;;8.48;0.65;;;20.20;39.30;;;;;;4994171;28;20053;-63
2022/03/31 07:03:08;;;;;;;1.90;0.60;;;20.20;39.30;;;;;;4990188;28;20065;-63
2022/03/31 07:05:38;;;;;;;0.70;0.50;;;20.20;39.40;;;;;;4990017;28;20465;-65
2022/03/31 07:08:04;;;;;;;1.55;0.65;;;20.20;39.30;;;;;;4974812;28;20082;-65
2022/03/31 07:10:30;;;;;;;1.15;0.50;;;20.20;39.30;;;;;;4991435;28;20049;-65
2022/03/31 07:12:56;;;;;;;0.65;0.40;;;20.20;39.30;;;;;;4991448;28;20046;-65
2022/03/31 07:15:21;;;;;;;1.52;0.40;;;20.20;39.40;;;;;;4992294;28;20034;-64
2022/03/31 07:17:47;;;;;;;1.60;0.50;;;20.20;39.50;;;;;;4989436;28;20031;-65
2022/03/31 07:20:13;;;;;;;2.40;0.45;;;20.20;39.60;;;;;;4992266;28;20077;-64
2022/03/31 07:22:46;;;;;;;0.50;0.50;;;20.20;39.70;;;;;;4991223;28;20042;-64
2022/03/31 07:25:13;;;;;;;2.05;0.47;;;20.20;39.80;;;;;;4991555;28;20200;-64
2022/03/31 07:27:39;;;;;;;0.40;0.40;;;20.20;39.80;;;;;;4991336;28;20578;-63
2022/03/31 07:30:05;;;;;;;1.33;0.50;;;20.20;39.90;;;;;;4992477;28;20121;-61
2022/03/31 07:32:32;;;;;;;1.63;0.50;;;20.30;40.00;;;;;;4990335;28;20042;-64
2022/03/31 07:34:57;;;;;;;0.60;0.50;;;20.20;40.00;;;;;;4975074;28;20096;-68
2022/03/31 07:37:23;;;;;;;0.45;0.40;;;20.30;40.10;;;;;;4989405;28;20532;-65
2022/03/31 07:39:49;;;;;;;1.85;0.40;;;20.30;40.00;;;;;;4990824;28;20498;-64
2022/03/31 07:42:15;;;;;;;1.13;0.50;;;20.30;40.00;;;;;;4990916;28;20507;-67
2022/03/31 07:44:41;;;;;;;2.47;0.40;;;20.30;40.10;;;;;;4976581;28;20037;-66
2022/03/31 07:47:07;;;;;;;0.75;0.40;;;20.30;40.10;;;;;;4973788;28;20046;-65
2022/03/31 07:49:33;;;;;;;3.28;0.60;;;20.30;40.20;;;;;;4992452;28;20400;-65
2022/03/31 07:51:58;;;;;;;0.93;0.30;;;20.30;40.30;;;;;;4975418;28;20041;-69
2022/03/31 07:54:24;;;;;;;1.55;0.40;;;20.30;40.30;;;;;;4991496;28;20034;-65
2022/03/31 07:56:50;;;;;;;0.40;0.40;;;20.30;40.30;;;;;;4990967;28;20724;-66
2022/03/31 07:59:21;;;;;;;0.82;0.52;;;20.30;40.30;;;;;;4959464;28;20045;-66
2022/03/31 08:01:47;;;;;;;0.60;0.38;;;20.30;40.30;;;;;;4993897;28;20046;-67
2022/03/31 08:04:14;;;;;;;2.00;0.40;;;20.30;40.30;;;;;;4977070;28;20088;-66
2022/03/31 08:06:40;;;;;;;0.40;0.40;;;20.30;40.20;;;;;;4993044;28;20041;-66
2022/03/31 08:09:05;;;;;;;1.20;0.40;;;20.30;40.20;;;;;;4974804;28;20045;-67
2022/03/31 08:11:31;;;;;;;0.50;0.43;;;20.40;40.20;;;;;;4973640;28;20402;-66
2022/03/31 08:13:57;;;;;;;1.25;0.30;;;20.40;40.40;;;;;;4993696;28;20636;-66
2022/03/31 08:16:22;;;;;;;3.80;0.88;;;20.40;40.20;;;;;;4987560;28;20042;-66
2022/03/31 08:18:49;;;;;;;1.65;0.68;;;20.40;40.20;;;;;;4989493;28;20050;-67
2022/03/31 08:21:15;;;;;;;0.40;0.40;;;20.40;40.10;;;;;;4972803;28;20042;-66
2022/03/31 08:23:41;;;;;;;1.10;0.40;;;20.40;40.10;;;;;;4987329;28;20402;-68
2022/03/31 08:26:06;;;;;;;1.10;0.40;;;20.40;40.10;;;;;;4959574;28;20037;-67
2022/03/31 08:28:32;;;;;;;0.50;0.50;;;20.40;40.10;;;;;;4988573;28;20667;-67
2022/03/31 08:30:58;;;;;;;0.77;0.50;;;20.40;40.10;;;;;;4991231;28;20132;-65
2022/03/31 08:33:23;;;;;;;1.50;0.40;;;20.40;40.00;;;;;;4975006;28;20045;-67
2022/03/31 08:35:49;;;;;;;0.32;0.30;;;20.40;40.00;;;;;;4973484;28;20050;-66
2022/03/31 08:38:15;;;;;;;1.38;0.47;;;20.40;40.00;;;;;;4987271;28;20050;-68
2022/03/31 08:40:42;;;;;;;0.50;0.50;;;20.40;40.00;;;;;;4998235;28;20528;-66
2022/03/31 08:43:08;;;;;;;1.02;0.50;;;20.40;40.00;;;;;;4997988;28;20132;-67
2022/03/31 08:45:37;;;;;;;0.60;0.60;;;20.40;40.00;;;;;;5001195;28;20133;-65
2022/03/31 08:48:04;;;;;;;0.60;0.50;;;20.50;40.00;;;;;;5002195;28;20125;-68
2022/03/31 08:50:34;;;;;;;0.70;0.45;;;20.50;39.90;;;;;;5001582;28;20057;-66
2022/03/31 08:52:59;;;;;;;0.43;0.43;;;20.50;39.90;;;;;;5002879;28;20045;-68
2022/03/31 08:55:25;;;;;;;0.47;0.40;;;20.50;39.90;;;;;;5002275;28;20478;-66
2022/03/31 08:57:54;;;;;;;0.52;0.50;;;20.50;39.90;;;;;;5000906;28;20352;-66
2022/03/31 09:00:22;;;;;;;0.47;0.40;;;20.50;39.90;;;;;;5001690;28;20073;-68
2022/03/31 09:03:05;;;;;;;0.52;0.52;;;20.50;39.80;;;;;;5018435;28;20050;-66
2022/03/31 09:05:42;;;;;;;0.60;0.60;;;20.50;39.80;;;;;;5017673;28;20073;-67
2022/03/31 09:08:11;;;;;;;1.40;0.50;;;20.60;39.80;;;;;;5002890;28;20085;-66
2022/03/31 09:10:37;;;;;;;0.43;0.43;;;20.50;39.80;;;;;;5002061;28;20100;-65
2022/03/31 09:13:15;;;;;;;0.43;0.43;;;20.50;39.70;;;;;;5002023;28;20080;-67
2022/03/31 09:15:49;;;;;;;2.13;0.70;;;20.50;39.70;;;;;;5018463;28;20058;-67
2022/03/31 09:18:19;;;;;;;0.60;0.60;;;20.50;39.60;;;;;;5002948;28;20041;-68
2022/03/31 09:20:47;;;;;;;0.40;0.40;;;20.50;39.60;;;;;;5008721;28;20445;-66
2022/03/31 09:23:21;;;;;;;0.60;0.60;;;20.60;39.70;;;;;;5018521;28;20041;-66
2022/03/31 09:25:48;;;;;;;0.60;0.50;;;20.60;39.70;;;;;;5003091;28;20038;-66
2022/03/31 09:28:18;;;;;;;0.40;0.40;;;20.60;39.70;;;;;;5001776;28;20125;-66
2022/03/31 09:30:49;;;;;;;0.50;0.50;;;20.60;39.70;;;;;;5017398;28;20057;-67
2022/03/31 09:33:25;;;;;;;;;;;20.60;39.70;;;;;;5000832;28;20573;-66
2022/03/31 09:35:56;;;;;;;0.55;0.55;;;20.60;39.60;;;;;;5002163;28;19918;-65
2022/03/31 09:38:22;;;;;;;0.50;0.50;;;20.60;39.70;;;;;;5004576;28;20042;-67
2022/03/31 09:40:47;;;;;;;0.52;0.52;;;20.60;39.70;;;;;;4995850;28;20065;-65
2022/03/31 09:43:13;;;;;;;0.50;0.50;;;20.60;39.70;;;;;;4995545;28;20500;-68
2022/03/31 09:45:40;;;;;;;0.63;0.63;;;20.60;39.70;;;;;;4975607;28;20428;-66
2022/03/31 09:48:16;;;;;;;0.77;0.77;;;20.60;39.70;;;;;;4990691;28;20046;-66
2022/03/31 09:50:42;;;;;;;0.70;0.68;;;20.60;39.60;;;;;;4995493;28;20056;-66
2022/03/31 09:53:08;;;;;;;1.20;0.70;;;20.60;39.60;;;;;;4977381;28;20857;-68
2022/03/31 09:55:35;;;;;;;0.60;0.60;;;20.70;39.70;;;;;;4973062;28;20495;-68
2022/03/31 09:58:02;;;;;;;1.13;0.52;;;20.60;39.60;;;;;;4992085;28;20046;-67
2022/03/31 10:00:28;;;;;;;0.63;0.63;;;20.70;39.70;;;;;;4993564;28;20050;-66
2022/03/31 10:02:54;;;;;;;0.63;0.63;;;20.70;39.60;;;;;;4995516;28;20065;-68
2022/03/31 10:05:21;;;;;;;0.80;0.80;;;20.70;39.60;;;;;;4977753;28;20078;-68
2022/03/31 10:07:48;;;;;;;0.70;0.70;;;20.70;39.60;;;;;;4991107;28;20034;-66
2022/03/31 10:10:13;;;;;;;0.68;0.68;;;20.70;39.60;;;;;;4974653;28;20057;-67
2022/03/31 10:12:56;;;;;;;0.60;0.60;;;20.70;39.60;;;;;;4975469;28;20034;-67
2022/03/31 10:15:33;;;;;;;1.15;0.70;;;20.70;39.50;;;;;;4973894;28;20121;-66
2022/03/31 10:17:59;;;;;;;0.70;0.70;;;20.70;39.60;;;;;;4993788;28;20042;-66
2022/03/31 10:20:25;;;;;;;0.80;0.80;;;20.70;39.60;;;;;;4976645;28;20046;-65
2022/03/31 10:25:41;;;;;;;0.70;0.70;;;20.70;39.50;;;;;;4976955;28;20058;-66
2022/03/31 10:28:09;;;;;;;0.60;0.60;;;20.70;39.50;;;;;;4973572;28;20038;-66
2022/03/31 10:30:35;;;;;;;0.70;0.70;;;20.70;39.50;;;;;;4976389;28;20400;-67
2022/03/31 10:33:04;;;;;;;1.38;0.63;;;20.80;39.60;;;;;;4974795;28;20079;-67
2022/03/31 10:35:34;;;;;;;1.48;0.70;;;20.80;39.50;;;;;;4976112;28;20046;-67
2022/03/31 10:38:14;;;;;;;1.25;0.50;;;20.80;39.60;;;;;;4994630;28;20045;-68
2022/03/31 10:40:45;;;;;;;1.42;0.60;;;20.80;39.60;;;;;;4983403;28;20078;-66
2022/03/31 10:43:20;;;;;;;;;;;20.80;39.60;;;;;;4979759;28;20053;-69
2022/03/31 10:45:46;;;;;;;0.55;0.50;;;20.80;39.70;;;;;;4952504;28;19922;-68
2022/03/31 10:48:17;;;;;;;0.60;0.60;;;20.80;39.70;;;;;;4970010;28;20039;-68
2022/03/31 10:50:43;;;;;;;0.50;0.50;;;20.80;39.70;;;;;;4981631;28;20046;-69
2022/03/31 10:53:09;;;;;;;0.70;0.60;;;20.80;39.80;;;;;;4949367;28;20047;-67
2022/03/31 10:55:37;;;;;;;1.58;0.52;;;20.80;39.70;;;;;;4977348;28;20513;-67
2022/03/31 10:58:05;;;;;;;0.50;0.50;;;20.80;39.70;;;;;;4983580;28;20455;-68
2022/03/31 11:00:30;;;;;;;1.05;0.50;;;20.80;39.70;;;;;;4976608;28;20043;-68
2022/03/31 11:02:56;;;;;;;0.77;0.60;;;20.80;39.80;;;;;;4964092;28;20117;-68
2022/03/31 11:05:22;;;;;;;1.23;0.50;;;20.80;39.80;;;;;;4969891;28;20092;-65
2022/03/31 11:07:48;;;;;;;0.77;0.60;;;20.90;40.10;;;;;;4977645;28;20049;-67
2022/03/31 11:10:17;;;;;;;1.25;0.50;;;20.90;40.10;;;;;;4974413;28;20502;-65
2022/03/31 11:12:43;;;;;;;1.13;0.40;;;20.90;40.10;;;;;;4975694;28;20056;-65
2022/03/31 11:15:15;;;;;;;0.43;0.43;;;20.90;40.20;;;;;;4975695;28;20125;-63
2022/03/31 11:17:42;;;;;;;2.03;0.70;;;20.90;40.10;;;;;;4977637;28;20051;-66
2022/03/31 11:20:20;;;;;;;2.45;0.47;;;20.90;40.10;;;;;;4978617;28;20413;-66
2022/03/31 11:22:49;;;;;;;0.50;0.50;;;20.90;41.00;;;;;;4974339;28;20034;-65
2022/03/31 11:25:15;;;;;;;1.25;0.40;;;20.90;40.30;;;;;;4976381;28;20073;-67
2022/03/31 11:27:41;;;;;;;1.13;0.50;;;20.90;40.50;;;;;;4977517;28;20382;-65
2022/03/31 11:30:30;;;;;;;3.15;0.88;;;20.90;40.60;;;;;;4977906;28;20082;-65
2022/03/31 11:32:56;;;;;;;0.52;0.40;;;20.90;40.70;;;;;;4962166;28;20238;-65
2022/03/31 11:35:24;;;;;;;0.85;0.63;;;20.90;40.70;;;;;;4976762;28;20125;-65
2022/03/31 11:37:53;;;;;;;1.15;0.38;;;20.90;40.70;;;;;;4977854;28;20065;-66
2022/03/31 11:40:22;;;;;;;1.33;0.40;;;21.00;40.70;;;;;;4993868;28;20495;-64
2022/03/31 11:42:50;;;;;;;0.65;0.45;;;21.00;40.80;;;;;;5017277;28;20077;-65
2022/03/31 11:45:29;;;;;;;0.40;0.40;;;20.90;40.80;;;;;;5009381;28;20571;-66
2022/03/31 11:48:11;;;;;;;0.47;0.47;;;21.00;40.80;;;;;;5002975;28;20042;-66
2022/03/31 11:50:59;;;;;;;0.57;0.43;;;21.00;40.70;;;;;;5003716;28;20088;-65
2022/03/31 11:53:27;;;;;;;0.60;0.55;;;21.00;40.60;;;;;;5018150;28;20045;-65
2022/03/31 11:56:00;;;;;;;1.48;0.40;;;20.90;40.50;;;;;;5003282;28;20492;-65
2022/03/31 11:58:27;;;;;;;0.95;0.40;;;20.90;40.50;;;;;;5000328;28;20050;-65
2022/03/31 12:00:53;;;;;;;0.55;0.55;;;20.90;40.40;;;;;;5002528;28;20041;-66
2022/03/31 12:03:18;;;;;;;0.50;0.50;;;20.90;40.30;;;;;;5001269;28;20045;-66
2022/03/31 12:05:55;;;;;;;1.00;0.45;;;21.00;40.30;;;;;;5004374;28;20577;-66
2022/03/31 12:08:21;;;;;;;1.75;0.50;;;21.00;40.20;;;;;;5004710;28;20045;-65
2022/03/31 12:10:50;;;;;;;0.65;0.40;;;21.00;40.20;;;;;;5004114;28;20038;-65
2022/03/31 12:13:15;;;;;;;0.40;0.40;;;20.90;40.10;;;;;;4993810;28;20505;-65
2022/03/31 12:15:41;;;;;;;0.40;0.38;;;21.00;40.20;;;;;;5017811;28;20053;-65
2022/03/31 12:18:09;;;;;;;0.40;0.40;;;21.00;40.00;;;;;;5002329;28;20113;-65
2022/03/31 12:20:37;;;;;;;1.02;0.50;;;21.00;40.00;;;;;;5002637;28;20046;-65
2022/03/31 12:23:15;;;;;;;0.52;0.52;;;21.00;40.00;;;;;;5004238;28;20041;-65
2022/03/31 12:25:41;;;;;;;0.75;0.50;;;20.90;39.90;;;;;;5002820;28;20482;-65
2022/03/31 12:28:10;;;;;;;0.40;0.40;;;20.90;39.90;;;;;;5001252;28;20073;-65
2022/03/31 12:30:47;;;;;;;0.40;0.40;;;20.90;39.90;;;;;;4993113;28;20084;-64
2022/03/31 12:33:36;;;;;;;0.52;0.50;;;20.90;39.80;;;;;;5017900;28;20050;-65
2022/03/31 12:36:03;;;;;;;0.32;0.32;;;20.90;39.70;;;;;;5004077;28;20136;-65
2022/03/31 12:38:49;;;;;;;0.60;0.60;;;20.90;39.80;;;;;;5002082;28;20057;-64
2022/03/31 12:41:29;;;;;;;0.50;0.50;;;20.90;39.60;;;;;;5003204;28;20054;-64
2022/03/31 12:44:15;;;;;;;0.40;0.40;;;20.90;39.70;;;;;;5002902;28;20042;-64
2022/03/31 12:46:44;;;;;;;0.40;0.40;;;20.90;39.60;;;;;;5002363;28;20129;-64
2022/03/31 12:49:11;;;;;;;0.88;0.40;;;20.90;39.70;;;;;;5003350;28;20124;-64
2022/03/31 12:51:48;;;;;;;0.60;0.60;;;20.90;39.60;;;;;;4985208;28;20037;-64
2022/03/31 12:54:20;;;;;;;0.70;0.40;;;20.90;39.60;;;;;;4983358;28;20041;-64
2022/03/31 12:56:48;;;;;;;0.40;0.40;;;20.90;39.60;;;;;;5000930;28;20049;-64
2022/03/31 12:59:23;;;;;;;0.50;0.50;;;20.90;39.60;;;;;;5001497;28;20044;-63
2022/03/31 13:02:01;;;;;;;0.50;0.40;;;20.90;39.60;;;;;;5002913;28;20040;-64
2022/03/31 13:04:28;;;;;;;0.68;0.65;;;20.90;39.60;;;;;;5002298;28;20062;-64
2022/03/31 13:06:54;;;;;;;1.38;0.52;;;20.90;39.70;;;;;;5002566;28;20057;-64
2022/03/31 13:09:21;;;;;;;0.60;0.60;;;20.90;40.10;;;;;;5001913;28;20046;-66